sensor_id;sensor_type;location;lat;lon;timestamp;temperature;humidity
51215;DHT22;63849;47.546;19.254;2023-03-14T00:00:13;6.90;55.80
51215;DHT22;63849;47.546;19.254;2023-03-14T00:02:39;6.90;55.90
51215;DHT22;63849;47.546;19.254;2023-03-14T00:05:06;6.80;57.00
51215;DHT22;63849;47.546;19.254;2023-03-14T00:07:34;6.80;56.60
51215;DHT22;63849;47.546;19.254;2023-03-14T00:10:06;6.80;57.40
51215;DHT22;63849;47.546;19.254;2023-03-14T00:12:33;6.80;56.70
51215;DHT22;63849;47.546;19.254;2023-03-14T00:14:59;6.90;56.70
51215;DHT22;63849;47.546;19.254;2023-03-14T00:17:30;6.90;57.10
51215;DHT22;63849;47.546;19.254;2023-03-14T00:19:56;6.90;57.10
51215;DHT22;63849;47.546;19.254;2023-03-14T00:22:24;6.90;56.90
51215;DHT22;63849;47.546;19.254;2023-03-14T00:24:52;6.90;57.00
51215;DHT22;63849;47.546;19.254;2023-03-14T00:27:18;6.90;56.80
51215;DHT22;63849;47.546;19.254;2023-03-14T00:29:43;6.90;57.60
51215;DHT22;63849;47.546;19.254;2023-03-14T00:32:09;6.90;57.40
51215;DHT22;63849;47.546;19.254;2023-03-14T00:34:35;7.00;57.30
51215;DHT22;63849;47.546;19.254;2023-03-14T00:37:01;7.00;56.80
51215;DHT22;63849;47.546;19.254;2023-03-14T00:39:27;7.10;56.50
51215;DHT22;63849;47.546;19.254;2023-03-14T00:41:52;7.20;56.20
51215;DHT22;63849;47.546;19.254;2023-03-14T00:44:21;7.30;55.50
51215;DHT22;63849;47.546;19.254;2023-03-14T00:46:46;7.30;55.30
51215;DHT22;63849;47.546;19.254;2023-03-14T00:49:13;7.30;55.70
51215;DHT22;63849;47.546;19.254;2023-03-14T00:51:41;7.20;56.40
51215;DHT22;63849;47.546;19.254;2023-03-14T00:54:07;7.20;56.00
51215;DHT22;63849;47.546;19.254;2023-03-14T00:56:33;7.20;56.20
51215;DHT22;63849;47.546;19.254;2023-03-14T00:58:58;7.20;56.40
51215;DHT22;63849;47.546;19.254;2023-03-14T01:01:24;7.10;56.70
51215;DHT22;63849;47.546;19.254;2023-03-14T01:03:55;7.10;57.10
51215;DHT22;63849;47.546;19.254;2023-03-14T01:06:26;7.10;56.90
51215;DHT22;63849;47.546;19.254;2023-03-14T01:08:55;7.10;57.00
51215;DHT22;63849;47.546;19.254;2023-03-14T01:11:23;7.10;57.10
51215;DHT22;63849;47.546;19.254;2023-03-14T01:13:52;7.10;57.10
51215;DHT22;63849;47.546;19.254;2023-03-14T01:16:20;7.10;57.20
51215;DHT22;63849;47.546;19.254;2023-03-14T01:18:47;7.00;57.90
51215;DHT22;63849;47.546;19.254;2023-03-14T01:23:41;7.10;57.30
51215;DHT22;63849;47.546;19.254;2023-03-14T01:26:12;7.00;57.00
51215;DHT22;63849;47.546;19.254;2023-03-14T01:28:38;7.10;56.70
51215;DHT22;63849;47.546;19.254;2023-03-14T01:31:06;7.10;57.10
51215;DHT22;63849;47.546;19.254;2023-03-14T01:33:32;7.10;56.80
51215;DHT22;63849;47.546;19.254;2023-03-14T01:36:01;7.10;56.70
51215;DHT22;63849;47.546;19.254;2023-03-14T01:38:30;7.00;57.00
51215;DHT22;63849;47.546;19.254;2023-03-14T01:40:57;6.90;57.20
51215;DHT22;63849;47.546;19.254;2023-03-14T01:43:23;6.90;57.10
51215;DHT22;63849;47.546;19.254;2023-03-14T01:48:39;6.80;57.60
51215;DHT22;63849;47.546;19.254;2023-03-14T01:51:09;6.80;57.90
51215;DHT22;63849;47.546;19.254;2023-03-14T01:53:36;6.70;58.10
51215;DHT22;63849;47.546;19.254;2023-03-14T01:56:05;6.70;58.20
51215;DHT22;63849;47.546;19.254;2023-03-14T01:58:33;6.60;58.80
51215;DHT22;63849;47.546;19.254;2023-03-14T02:01:02;6.60;58.50
51215;DHT22;63849;47.546;19.254;2023-03-14T02:03:31;6.60;58.60
51215;DHT22;63849;47.546;19.254;2023-03-14T02:06:01;6.70;58.50
51215;DHT22;63849;47.546;19.254;2023-03-14T02:08:31;6.70;58.50
51215;DHT22;63849;47.546;19.254;2023-03-14T02:10:57;6.70;58.60
51215;DHT22;63849;47.546;19.254;2023-03-14T02:13:23;6.60;58.90
51215;DHT22;63849;47.546;19.254;2023-03-14T02:15:49;6.60;59.50
51215;DHT22;63849;47.546;19.254;2023-03-14T02:18:16;6.60;59.20
51215;DHT22;63849;47.546;19.254;2023-03-14T02:20:59;6.60;59.30
51215;DHT22;63849;47.546;19.254;2023-03-14T02:23:35;6.60;59.30
51215;DHT22;63849;47.546;19.254;2023-03-14T02:26:16;6.60;59.40
51215;DHT22;63849;47.546;19.254;2023-03-14T02:28:46;6.70;59.80
51215;DHT22;63849;47.546;19.254;2023-03-14T02:31:12;6.70;59.60
51215;DHT22;63849;47.546;19.254;2023-03-14T02:33:38;6.60;60.00
51215;DHT22;63849;47.546;19.254;2023-03-14T02:36:09;6.60;60.40
51215;DHT22;63849;47.546;19.254;2023-03-14T02:38:47;6.60;60.20
51215;DHT22;63849;47.546;19.254;2023-03-14T02:41:15;6.60;60.50
51215;DHT22;63849;47.546;19.254;2023-03-14T02:43:41;6.60;60.40
51215;DHT22;63849;47.546;19.254;2023-03-14T02:46:10;6.60;60.90
51215;DHT22;63849;47.546;19.254;2023-03-14T02:48:45;6.60;60.60
51215;DHT22;63849;47.546;19.254;2023-03-14T02:51:14;6.60;60.50
51215;DHT22;63849;47.546;19.254;2023-03-14T02:53:40;6.60;60.80
51215;DHT22;63849;47.546;19.254;2023-03-14T02:56:09;6.60;60.80
51215;DHT22;63849;47.546;19.254;2023-03-14T02:58:35;6.70;60.60
51215;DHT22;63849;47.546;19.254;2023-03-14T03:01:01;6.70;60.40
51215;DHT22;63849;47.546;19.254;2023-03-14T03:03:27;6.70;60.40
51215;DHT22;63849;47.546;19.254;2023-03-14T03:05:55;6.60;61.10
51215;DHT22;63849;47.546;19.254;2023-03-14T03:08:23;6.60;60.60
51215;DHT22;63849;47.546;19.254;2023-03-14T03:10:49;6.60;60.80
51215;DHT22;63849;47.546;19.254;2023-03-14T03:13:15;6.70;60.60
51215;DHT22;63849;47.546;19.254;2023-03-14T03:15:42;6.80;60.40
51215;DHT22;63849;47.546;19.254;2023-03-14T03:18:08;6.80;60.50
51215;DHT22;63849;47.546;19.254;2023-03-14T03:20:34;6.90;60.50
51215;DHT22;63849;47.546;19.254;2023-03-14T03:23:00;7.00;60.00
51215;DHT22;63849;47.546;19.254;2023-03-14T03:25:26;7.10;59.80
51215;DHT22;63849;47.546;19.254;2023-03-14T03:27:52;7.20;59.60
51215;DHT22;63849;47.546;19.254;2023-03-14T03:30:19;7.20;59.70
51215;DHT22;63849;47.546;19.254;2023-03-14T03:32:45;7.20;59.60
51215;DHT22;63849;47.546;19.254;2023-03-14T03:35:11;7.20;59.40
51215;DHT22;63849;47.546;19.254;2023-03-14T03:37:37;7.20;59.60
51215;DHT22;63849;47.546;19.254;2023-03-14T03:40:04;7.20;59.60
51215;DHT22;63849;47.546;19.254;2023-03-14T03:42:32;7.30;59.40
51215;DHT22;63849;47.546;19.254;2023-03-14T03:45:00;7.30;59.20
51215;DHT22;63849;47.546;19.254;2023-03-14T03:47:26;7.30;59.10
51215;DHT22;63849;47.546;19.254;2023-03-14T03:49:52;7.30;59.20
51215;DHT22;63849;47.546;19.254;2023-03-14T03:52:18;7.20;59.70
51215;DHT22;63849;47.546;19.254;2023-03-14T03:54:44;7.20;59.60
51215;DHT22;63849;47.546;19.254;2023-03-14T03:57:10;7.10;60.10
51215;DHT22;63849;47.546;19.254;2023-03-14T03:59:35;7.10;60.20
51215;DHT22;63849;47.546;19.254;2023-03-14T04:02:04;7.10;60.10
51215;DHT22;63849;47.546;19.254;2023-03-14T04:04:30;7.00;59.80
51215;DHT22;63849;47.546;19.254;2023-03-14T04:06:59;7.00;59.60
51215;DHT22;63849;47.546;19.254;2023-03-14T04:09:25;6.90;59.60
51215;DHT22;63849;47.546;19.254;2023-03-14T04:11:50;7.00;59.50
51215;DHT22;63849;47.546;19.254;2023-03-14T04:14:19;7.00;59.50
51215;DHT22;63849;47.546;19.254;2023-03-14T04:16:45;6.90;60.00
51215;DHT22;63849;47.546;19.254;2023-03-14T04:19:11;6.90;59.70
51215;DHT22;63849;47.546;19.254;2023-03-14T04:21:37;6.80;59.70
51215;DHT22;63849;47.546;19.254;2023-03-14T04:24:06;6.80;59.60
51215;DHT22;63849;47.546;19.254;2023-03-14T04:26:32;6.60;60.30
51215;DHT22;63849;47.546;19.254;2023-03-14T04:28:57;6.50;60.40
51215;DHT22;63849;47.546;19.254;2023-03-14T04:31:23;6.40;60.50
51215;DHT22;63849;47.546;19.254;2023-03-14T04:33:49;6.30;61.30
51215;DHT22;63849;47.546;19.254;2023-03-14T04:36:15;6.30;61.30
51215;DHT22;63849;47.546;19.254;2023-03-14T04:38:41;6.30;61.60
51215;DHT22;63849;47.546;19.254;2023-03-14T04:41:08;6.30;61.00
51215;DHT22;63849;47.546;19.254;2023-03-14T04:43:34;6.30;61.00
51215;DHT22;63849;47.546;19.254;2023-03-14T04:46:00;6.30;61.00
51215;DHT22;63849;47.546;19.254;2023-03-14T04:48:26;6.30;60.90
51215;DHT22;63849;47.546;19.254;2023-03-14T04:50:53;6.30;60.80
51215;DHT22;63849;47.546;19.254;2023-03-14T04:53:19;6.30;61.20
51215;DHT22;63849;47.546;19.254;2023-03-14T04:55:53;6.30;61.10
51215;DHT22;63849;47.546;19.254;2023-03-14T04:58:19;6.30;61.70
51215;DHT22;63849;47.546;19.254;2023-03-14T05:00:46;6.30;61.70
51215;DHT22;63849;47.546;19.254;2023-03-14T05:03:15;6.30;61.70
51215;DHT22;63849;47.546;19.254;2023-03-14T05:05:40;6.30;61.50
51215;DHT22;63849;47.546;19.254;2023-03-14T05:08:06;6.30;61.90
51215;DHT22;63849;47.546;19.254;2023-03-14T05:10:32;6.40;61.90
51215;DHT22;63849;47.546;19.254;2023-03-14T05:12:58;6.30;62.50
51215;DHT22;63849;47.546;19.254;2023-03-14T05:15:24;6.30;62.30
51215;DHT22;63849;47.546;19.254;2023-03-14T05:17:49;6.30;62.60
51215;DHT22;63849;47.546;19.254;2023-03-14T05:20:15;6.30;63.30
51215;DHT22;63849;47.546;19.254;2023-03-14T05:22:42;6.30;63.60
51215;DHT22;63849;47.546;19.254;2023-03-14T05:25:08;6.40;63.10
51215;DHT22;63849;47.546;19.254;2023-03-14T05:27:35;6.60;62.80
51215;DHT22;63849;47.546;19.254;2023-03-14T05:30:02;6.80;62.30
51215;DHT22;63849;47.546;19.254;2023-03-14T05:32:28;6.80;62.20
51215;DHT22;63849;47.546;19.254;2023-03-14T05:34:54;7.00;61.80
51215;DHT22;63849;47.546;19.254;2023-03-14T05:37:23;7.20;61.20
51215;DHT22;63849;47.546;19.254;2023-03-14T05:39:49;7.20;61.00
51215;DHT22;63849;47.546;19.254;2023-03-14T05:42:15;7.40;61.00
51215;DHT22;63849;47.546;19.254;2023-03-14T05:44:41;7.50;60.60
51215;DHT22;63849;47.546;19.254;2023-03-14T05:47:07;7.60;60.00
51215;DHT22;63849;47.546;19.254;2023-03-14T05:49:32;7.90;59.10
51215;DHT22;63849;47.546;19.254;2023-03-14T05:51:58;8.00;59.00
51215;DHT22;63849;47.546;19.254;2023-03-14T05:54:24;8.20;57.90
51215;DHT22;63849;47.546;19.254;2023-03-14T05:56:50;8.30;57.20
51215;DHT22;63849;47.546;19.254;2023-03-14T05:59:15;8.50;56.30
51215;DHT22;63849;47.546;19.254;2023-03-14T06:01:41;8.70;55.90
51215;DHT22;63849;47.546;19.254;2023-03-14T06:04:07;9.00;56.10
51215;DHT22;63849;47.546;19.254;2023-03-14T06:06:33;9.30;55.00
51215;DHT22;63849;47.546;19.254;2023-03-14T06:08:58;9.40;54.20
51215;DHT22;63849;47.546;19.254;2023-03-14T06:11:24;9.60;54.40
51215;DHT22;63849;47.546;19.254;2023-03-14T06:13:50;9.70;53.10
51215;DHT22;63849;47.546;19.254;2023-03-14T06:16:16;9.90;53.80
51215;DHT22;63849;47.546;19.254;2023-03-14T06:18:42;10.10;52.50
51215;DHT22;63849;47.546;19.254;2023-03-14T06:21:08;10.10;52.50
51215;DHT22;63849;47.546;19.254;2023-03-14T06:23:34;10.30;52.80
51215;DHT22;63849;47.546;19.254;2023-03-14T06:25:59;10.40;50.90
51215;DHT22;63849;47.546;19.254;2023-03-14T06:28:26;10.60;51.60
51215;DHT22;63849;47.546;19.254;2023-03-14T06:30:52;10.70;50.60
51215;DHT22;63849;47.546;19.254;2023-03-14T06:33:18;10.90;50.50
51215;DHT22;63849;47.546;19.254;2023-03-14T06:35:44;11.00;50.20
51215;DHT22;63849;47.546;19.254;2023-03-14T06:38:10;11.20;50.40
51215;DHT22;63849;47.546;19.254;2023-03-14T06:40:35;11.10;50.50
51215;DHT22;63849;47.546;19.254;2023-03-14T06:43:01;11.20;50.30
51215;DHT22;63849;47.546;19.254;2023-03-14T06:45:27;11.10;50.20
51215;DHT22;63849;47.546;19.254;2023-03-14T06:47:53;10.90;49.80
51215;DHT22;63849;47.546;19.254;2023-03-14T06:50:18;10.90;50.40
51215;DHT22;63849;47.546;19.254;2023-03-14T06:52:44;11.10;50.90
51215;DHT22;63849;47.546;19.254;2023-03-14T06:55:14;11.10;50.20
51215;DHT22;63849;47.546;19.254;2023-03-14T06:57:40;11.10;50.20
51215;DHT22;63849;47.546;19.254;2023-03-14T07:00:06;11.20;50.10
51215;DHT22;63849;47.546;19.254;2023-03-14T07:02:32;11.40;50.00
51215;DHT22;63849;47.546;19.254;2023-03-14T07:04:58;11.40;50.20
51215;DHT22;63849;47.546;19.254;2023-03-14T07:07:26;11.50;49.70
51215;DHT22;63849;47.546;19.254;2023-03-14T07:09:53;11.50;49.40
51215;DHT22;63849;47.546;19.254;2023-03-14T07:12:19;11.50;49.40
51215;DHT22;63849;47.546;19.254;2023-03-14T07:14:45;11.60;49.80
51215;DHT22;63849;47.546;19.254;2023-03-14T07:17:11;11.60;50.10
51215;DHT22;63849;47.546;19.254;2023-03-14T07:19:37;11.60;50.10
51215;DHT22;63849;47.546;19.254;2023-03-14T07:22:04;11.80;49.60
51215;DHT22;63849;47.546;19.254;2023-03-14T07:24:30;11.90;49.30
51215;DHT22;63849;47.546;19.254;2023-03-14T07:26:56;12.10;49.10
51215;DHT22;63849;47.546;19.254;2023-03-14T07:29:22;12.10;49.20
51215;DHT22;63849;47.546;19.254;2023-03-14T07:31:47;12.30;49.10
51215;DHT22;63849;47.546;19.254;2023-03-14T07:34:13;12.30;49.50
51215;DHT22;63849;47.546;19.254;2023-03-14T07:36:39;12.40;48.90
51215;DHT22;63849;47.546;19.254;2023-03-14T07:39:06;12.40;49.10
51215;DHT22;63849;47.546;19.254;2023-03-14T07:41:33;12.70;49.50
51215;DHT22;63849;47.546;19.254;2023-03-14T07:43:58;12.80;48.70
51215;DHT22;63849;47.546;19.254;2023-03-14T07:46:24;13.00;48.30
51215;DHT22;63849;47.546;19.254;2023-03-14T07:48:50;13.30;47.90
51215;DHT22;63849;47.546;19.254;2023-03-14T07:51:16;13.30;48.20
51215;DHT22;63849;47.546;19.254;2023-03-14T07:53:44;13.40;48.00
51215;DHT22;63849;47.546;19.254;2023-03-14T07:56:11;13.60;47.40
51215;DHT22;63849;47.546;19.254;2023-03-14T07:58:37;13.60;47.50
51215;DHT22;63849;47.546;19.254;2023-03-14T08:01:03;13.80;48.00
51215;DHT22;63849;47.546;19.254;2023-03-14T08:03:28;13.90;47.80
51215;DHT22;63849;47.546;19.254;2023-03-14T08:05:54;13.80;47.40
51215;DHT22;63849;47.546;19.254;2023-03-14T08:08:20;13.90;46.90
51215;DHT22;63849;47.546;19.254;2023-03-14T08:10:47;14.10;47.00
51215;DHT22;63849;47.546;19.254;2023-03-14T08:13:13;14.20;46.00
51215;DHT22;63849;47.546;19.254;2023-03-14T08:15:39;14.30;46.80
51215;DHT22;63849;47.546;19.254;2023-03-14T08:18:05;14.70;46.10
51215;DHT22;63849;47.546;19.254;2023-03-14T08:20:31;14.60;46.40
51215;DHT22;63849;47.546;19.254;2023-03-14T08:22:59;14.50;45.70
51215;DHT22;63849;47.546;19.254;2023-03-14T08:25:26;14.60;45.80
51215;DHT22;63849;47.546;19.254;2023-03-14T08:27:52;14.60;45.20
51215;DHT22;63849;47.546;19.254;2023-03-14T08:30:21;14.60;45.80
51215;DHT22;63849;47.546;19.254;2023-03-14T08:32:47;14.70;45.30
51215;DHT22;63849;47.546;19.254;2023-03-14T08:35:14;14.70;46.10
51215;DHT22;63849;47.546;19.254;2023-03-14T08:37:40;14.90;46.20
51215;DHT22;63849;47.546;19.254;2023-03-14T08:40:07;15.10;45.60
51215;DHT22;63849;47.546;19.254;2023-03-14T08:42:36;15.20;45.40
51215;DHT22;63849;47.546;19.254;2023-03-14T08:45:02;15.20;44.90
51215;DHT22;63849;47.546;19.254;2023-03-14T08:47:28;15.30;45.20
51215;DHT22;63849;47.546;19.254;2023-03-14T08:49:54;15.40;45.80
51215;DHT22;63849;47.546;19.254;2023-03-14T08:52:20;15.60;45.40
51215;DHT22;63849;47.546;19.254;2023-03-14T08:54:46;15.70;44.50
51215;DHT22;63849;47.546;19.254;2023-03-14T08:57:12;15.60;44.40
51215;DHT22;63849;47.546;19.254;2023-03-14T08:59:38;15.50;45.00
51215;DHT22;63849;47.546;19.254;2023-03-14T09:02:03;15.50;46.00
51215;DHT22;63849;47.546;19.254;2023-03-14T09:04:30;15.50;45.60
51215;DHT22;63849;47.546;19.254;2023-03-14T09:06:56;15.60;45.60
51215;DHT22;63849;47.546;19.254;2023-03-14T09:09:26;15.60;44.50
51215;DHT22;63849;47.546;19.254;2023-03-14T09:11:53;15.60;44.10
51215;DHT22;63849;47.546;19.254;2023-03-14T09:14:19;15.50;46.30
51215;DHT22;63849;47.546;19.254;2023-03-14T09:16:44;15.50;44.60
51215;DHT22;63849;47.546;19.254;2023-03-14T09:19:10;15.40;45.70
51215;DHT22;63849;47.546;19.254;2023-03-14T09:21:36;15.30;46.10
51215;DHT22;63849;47.546;19.254;2023-03-14T09:24:04;15.30;46.10
51215;DHT22;63849;47.546;19.254;2023-03-14T09:26:30;15.30;45.70
51215;DHT22;63849;47.546;19.254;2023-03-14T09:28:56;15.30;45.80
51215;DHT22;63849;47.546;19.254;2023-03-14T09:31:22;15.20;45.70
51215;DHT22;63849;47.546;19.254;2023-03-14T09:33:48;15.20;45.30
51215;DHT22;63849;47.546;19.254;2023-03-14T09:36:14;15.20;45.80
51215;DHT22;63849;47.546;19.254;2023-03-14T09:38:39;15.20;46.60
51215;DHT22;63849;47.546;19.254;2023-03-14T09:43:50;15.30;47.20
51215;DHT22;63849;47.546;19.254;2023-03-14T09:46:18;15.30;46.40
51215;DHT22;63849;47.546;19.254;2023-03-14T09:48:45;15.30;46.40
51215;DHT22;63849;47.546;19.254;2023-03-14T09:51:14;15.30;46.50
51215;DHT22;63849;47.546;19.254;2023-03-14T09:53:48;15.30;46.40
51215;DHT22;63849;47.546;19.254;2023-03-14T09:56:28;15.30;46.20
51215;DHT22;63849;47.546;19.254;2023-03-14T09:58:57;15.30;46.40
51215;DHT22;63849;47.546;19.254;2023-03-14T10:01:32;15.50;47.40
51215;DHT22;63849;47.546;19.254;2023-03-14T10:04:06;15.60;47.80
51215;DHT22;63849;47.546;19.254;2023-03-14T10:06:35;15.80;47.10
51215;DHT22;63849;47.546;19.254;2023-03-14T10:09:03;16.00;46.10
51215;DHT22;63849;47.546;19.254;2023-03-14T10:11:31;16.20;47.00
51215;DHT22;63849;47.546;19.254;2023-03-14T10:16:31;16.40;46.00
51215;DHT22;63849;47.546;19.254;2023-03-14T10:19:06;16.40;45.00
51215;DHT22;63849;47.546;19.254;2023-03-14T10:21:41;16.60;45.70
51215;DHT22;63849;47.546;19.254;2023-03-14T10:24:29;16.60;45.30
51215;DHT22;63849;47.546;19.254;2023-03-14T10:26:59;16.80;45.20
51215;DHT22;63849;47.546;19.254;2023-03-14T10:29:31;16.80;44.40
51215;DHT22;63849;47.546;19.254;2023-03-14T10:32:03;16.70;44.00
51215;DHT22;63849;47.546;19.254;2023-03-14T10:37:07;16.80;44.60
51215;DHT22;63849;47.546;19.254;2023-03-14T10:39:52;16.80;44.30
51215;DHT22;63849;47.546;19.254;2023-03-14T10:42:28;16.90;45.00
51215;DHT22;63849;47.546;19.254;2023-03-14T10:45:01;16.90;44.00
51215;DHT22;63849;47.546;19.254;2023-03-14T10:47:28;16.90;44.20
51215;DHT22;63849;47.546;19.254;2023-03-14T10:49:55;16.90;44.30
51215;DHT22;63849;47.546;19.254;2023-03-14T10:52:26;16.90;44.20
51215;DHT22;63849;47.546;19.254;2023-03-14T10:55:09;17.00;43.90
51215;DHT22;63849;47.546;19.254;2023-03-14T10:57:39;17.00;44.50
51215;DHT22;63849;47.546;19.254;2023-03-14T11:00:09;17.20;45.20
51215;DHT22;63849;47.546;19.254;2023-03-14T11:05:48;17.10;44.90
51215;DHT22;63849;47.546;19.254;2023-03-14T11:08:17;17.30;44.70
51215;DHT22;63849;47.546;19.254;2023-03-14T11:10:46;17.10;44.70
51215;DHT22;63849;47.546;19.254;2023-03-14T11:13:43;17.20;44.10
51215;DHT22;63849;47.546;19.254;2023-03-14T11:35:16;17.40;45.30
51215;DHT22;63849;47.546;19.254;2023-03-14T11:40:36;17.40;44.50
51215;DHT22;63849;47.546;19.254;2023-03-14T11:43:20;17.50;45.00
51215;DHT22;63849;47.546;19.254;2023-03-14T11:45:56;17.60;43.70
51215;DHT22;63849;47.546;19.254;2023-03-14T11:51:01;17.70;42.70
51215;DHT22;63849;47.546;19.254;2023-03-14T11:53:43;17.70;42.90
51215;DHT22;63849;47.546;19.254;2023-03-14T11:56:37;17.70;43.10
51215;DHT22;63849;47.546;19.254;2023-03-14T12:02:02;17.90;42.60
51215;DHT22;63849;47.546;19.254;2023-03-14T12:04:54;17.90;43.00
51215;DHT22;63849;47.546;19.254;2023-03-14T12:07:28;17.90;43.70
51215;DHT22;63849;47.546;19.254;2023-03-14T12:09:55;17.90;42.60
51215;DHT22;63849;47.546;19.254;2023-03-14T12:12:29;17.90;43.00
51215;DHT22;63849;47.546;19.254;2023-03-14T12:15:03;18.00;42.80
51215;DHT22;63849;47.546;19.254;2023-03-14T12:17:42;18.10;43.20
51215;DHT22;63849;47.546;19.254;2023-03-14T12:20:24;18.10;43.10
51215;DHT22;63849;47.546;19.254;2023-03-14T12:23:10;18.10;43.20
51215;DHT22;63849;47.546;19.254;2023-03-14T12:25:36;17.90;43.10
51215;DHT22;63849;47.546;19.254;2023-03-14T12:30:39;18.00;43.10
51215;DHT22;63849;47.546;19.254;2023-03-14T12:35:45;17.90;42.30
51215;DHT22;63849;47.546;19.254;2023-03-14T12:41:40;18.00;42.20
51215;DHT22;63849;47.546;19.254;2023-03-14T12:49:50;18.00;42.80
51215;DHT22;63849;47.546;19.254;2023-03-14T12:52:38;17.90;42.80
51215;DHT22;63849;47.546;19.254;2023-03-14T12:55:21;18.00;42.90
51215;DHT22;63849;47.546;19.254;2023-03-14T13:00:54;18.20;41.40
51215;DHT22;63849;47.546;19.254;2023-03-14T13:06:09;18.00;42.40
51215;DHT22;63849;47.546;19.254;2023-03-14T13:08:41;17.90;42.50
51215;DHT22;63849;47.546;19.254;2023-03-14T13:11:19;17.90;41.30
51215;DHT22;63849;47.546;19.254;2023-03-14T13:13:56;17.80;41.70
51215;DHT22;63849;47.546;19.254;2023-03-14T13:16:22;17.70;41.10
51215;DHT22;63849;47.546;19.254;2023-03-14T13:19:11;17.60;41.40
51215;DHT22;63849;47.546;19.254;2023-03-14T13:21:39;17.60;42.10
51215;DHT22;63849;47.546;19.254;2023-03-14T13:24:20;17.50;42.20
51215;DHT22;63849;47.546;19.254;2023-03-14T13:26:46;17.40;41.80
51215;DHT22;63849;47.546;19.254;2023-03-14T13:29:27;17.30;42.50
51215;DHT22;63849;47.546;19.254;2023-03-14T13:32:18;17.20;42.80
51215;DHT22;63849;47.546;19.254;2023-03-14T13:34:45;17.10;42.70
51215;DHT22;63849;47.546;19.254;2023-03-14T13:37:31;17.10;42.00
51215;DHT22;63849;47.546;19.254;2023-03-14T13:40:00;17.20;42.00
51215;DHT22;63849;47.546;19.254;2023-03-14T13:42:29;17.20;41.80
51215;DHT22;63849;47.546;19.254;2023-03-14T13:45:00;17.10;42.80
51215;DHT22;63849;47.546;19.254;2023-03-14T13:47:26;17.00;43.70
51215;DHT22;63849;47.546;19.254;2023-03-14T13:49:53;16.90;42.40
51215;DHT22;63849;47.546;19.254;2023-03-14T13:52:38;16.90;42.00
51215;DHT22;63849;47.546;19.254;2023-03-14T13:55:06;16.90;42.60
51215;DHT22;63849;47.546;19.254;2023-03-14T13:57:51;16.90;42.40
51215;DHT22;63849;47.546;19.254;2023-03-14T14:00:30;17.00;42.50
51215;DHT22;63849;47.546;19.254;2023-03-14T14:02:58;17.00;45.20
51215;DHT22;63849;47.546;19.254;2023-03-14T14:05:29;17.00;45.10
51215;DHT22;63849;47.546;19.254;2023-03-14T14:07:57;17.10;45.30
51215;DHT22;63849;47.546;19.254;2023-03-14T14:10:23;17.10;45.50
51215;DHT22;63849;47.546;19.254;2023-03-14T14:12:55;17.10;45.70
51215;DHT22;63849;47.546;19.254;2023-03-14T14:15:28;17.20;44.40
51215;DHT22;63849;47.546;19.254;2023-03-14T14:18:02;17.10;46.10
51215;DHT22;63849;47.546;19.254;2023-03-14T14:20:38;17.10;45.70
51215;DHT22;63849;47.546;19.254;2023-03-14T14:23:10;17.00;46.20
51215;DHT22;63849;47.546;19.254;2023-03-14T14:25:37;16.90;46.30
51215;DHT22;63849;47.546;19.254;2023-03-14T14:28:29;16.90;46.90
51215;DHT22;63849;47.546;19.254;2023-03-14T14:33:53;16.80;47.10
51215;DHT22;63849;47.546;19.254;2023-03-14T14:36:30;16.80;47.40
51215;DHT22;63849;47.546;19.254;2023-03-14T14:39:04;16.90;47.30
51215;DHT22;63849;47.546;19.254;2023-03-14T14:41:33;16.80;47.70
51215;DHT22;63849;47.546;19.254;2023-03-14T14:44:03;16.60;47.70
51215;DHT22;63849;47.546;19.254;2023-03-14T14:46:32;16.60;46.30
51215;DHT22;63849;47.546;19.254;2023-03-14T14:49:08;16.60;46.80
51215;DHT22;63849;47.546;19.254;2023-03-14T14:51:41;16.70;47.00
51215;DHT22;63849;47.546;19.254;2023-03-14T14:54:19;16.60;46.80
51215;DHT22;63849;47.546;19.254;2023-03-14T14:56:50;16.60;46.10
51215;DHT22;63849;47.546;19.254;2023-03-14T14:59:23;16.50;46.00
51215;DHT22;63849;47.546;19.254;2023-03-14T15:01:49;16.50;46.00
51215;DHT22;63849;47.546;19.254;2023-03-14T15:04:16;16.40;45.70
51215;DHT22;63849;47.546;19.254;2023-03-14T15:06:44;16.40;45.70
51215;DHT22;63849;47.546;19.254;2023-03-14T15:09:11;16.30;45.40
51215;DHT22;63849;47.546;19.254;2023-03-14T15:11:37;16.10;46.00
51215;DHT22;63849;47.546;19.254;2023-03-14T15:14:03;16.10;45.10
51215;DHT22;63849;47.546;19.254;2023-03-14T15:16:30;16.10;45.50
51215;DHT22;63849;47.546;19.254;2023-03-14T15:18:59;15.90;46.00
51215;DHT22;63849;47.546;19.254;2023-03-14T15:21:26;15.90;45.80
51215;DHT22;63849;47.546;19.254;2023-03-14T15:23:52;15.90;45.70
51215;DHT22;63849;47.546;19.254;2023-03-14T15:26:20;15.90;45.90
51215;DHT22;63849;47.546;19.254;2023-03-14T15:28:47;15.80;46.40
51215;DHT22;63849;47.546;19.254;2023-03-14T15:31:14;15.70;47.10
51215;DHT22;63849;47.546;19.254;2023-03-14T15:33:40;15.60;48.30
51215;DHT22;63849;47.546;19.254;2023-03-14T15:36:16;15.50;48.30
51215;DHT22;63849;47.546;19.254;2023-03-14T15:38:44;15.40;48.80
51215;DHT22;63849;47.546;19.254;2023-03-14T15:41:10;15.40;48.30
51215;DHT22;63849;47.546;19.254;2023-03-14T15:43:35;15.40;47.90
51215;DHT22;63849;47.546;19.254;2023-03-14T15:46:01;15.40;48.10
51215;DHT22;63849;47.546;19.254;2023-03-14T15:48:27;15.50;48.10
51215;DHT22;63849;47.546;19.254;2023-03-14T15:50:53;15.40;48.20
51215;DHT22;63849;47.546;19.254;2023-03-14T15:53:19;15.30;48.60
51215;DHT22;63849;47.546;19.254;2023-03-14T15:55:44;15.30;48.80
51215;DHT22;63849;47.546;19.254;2023-03-14T15:58:16;15.20;49.20
51215;DHT22;63849;47.546;19.254;2023-03-14T16:00:45;15.20;49.50
51215;DHT22;63849;47.546;19.254;2023-03-14T16:03:11;15.10;49.60
51215;DHT22;63849;47.546;19.254;2023-03-14T16:05:41;15.10;50.30
51215;DHT22;63849;47.546;19.254;2023-03-14T16:08:07;15.20;51.20
51215;DHT22;63849;47.546;19.254;2023-03-14T16:10:34;15.10;52.10
51215;DHT22;63849;47.546;19.254;2023-03-14T16:13:00;15.10;54.00
51215;DHT22;63849;47.546;19.254;2023-03-14T16:15:26;14.90;59.40
51215;DHT22;63849;47.546;19.254;2023-03-14T16:17:55;14.80;61.90
51215;DHT22;63849;47.546;19.254;2023-03-14T16:20:22;14.70;63.00
51215;DHT22;63849;47.546;19.254;2023-03-14T16:22:48;14.60;64.40
51215;DHT22;63849;47.546;19.254;2023-03-14T16:25:15;14.50;65.30
51215;DHT22;63849;47.546;19.254;2023-03-14T16:27:41;14.40;66.00
51215;DHT22;63849;47.546;19.254;2023-03-14T16:30:08;14.40;67.00
51215;DHT22;63849;47.546;19.254;2023-03-14T16:32:35;14.20;67.30
51215;DHT22;63849;47.546;19.254;2023-03-14T16:35:01;14.10;68.70
51215;DHT22;63849;47.546;19.254;2023-03-14T16:37:26;14.00;68.80